sensor_id;sensor_type;location;lat;lon;timestamp;temperature;humidity
8099;DHT22;4092;47.876;9.372;2024-03-02T00:01:06;4.20;99.90
8099;DHT22;4092;47.876;9.372;2024-03-02T00:03:34;4.20;99.90
8099;DHT22;4092;47.876;9.372;2024-03-02T00:06:03;4.20;99.90
8099;DHT22;4092;47.876;9.372;2024-03-02T00:08:30;4.20;99.90
8099;DHT22;4092;47.876;9.372;2024-03-02T00:10:59;4.20;99.90
8099;DHT22;4092;47.876;9.372;2024-03-02T00:13:26;4.20;99.90
8099;DHT22;4092;47.876;9.372;2024-03-02T00:15:54;4.20;99.90
8099;DHT22;4092;47.876;9.372;2024-03-02T00:18:25;4.20;99.90
8099;DHT22;4092;47.876;9.372;2024-03-02T00:20:57;4.20;99.90
8099;DHT22;4092;47.876;9.372;2024-03-02T00:23:27;4.20;99.90
8099;DHT22;4092;47.876;9.372;2024-03-02T00:25:57;4.10;99.90
8099;DHT22;4092;47.876;9.372;2024-03-02T00:28:26;4.10;99.90
8099;DHT22;4092;47.876;9.372;2024-03-02T00:30:58;4.10;99.90
8099;DHT22;4092;47.876;9.372;2024-03-02T00:33:27;4.10;99.90
8099;DHT22;4092;47.876;9.372;2024-03-02T00:35:58;4.10;99.90
8099;DHT22;4092;47.876;9.372;2024-03-02T00:38:26;4.10;99.90
8099;DHT22;4092;47.876;9.372;2024-03-02T00:40:54;4.10;99.90
8099;DHT22;4092;47.876;9.372;2024-03-02T00:43:43;4.00;99.90
8099;DHT22;4092;47.876;9.372;2024-03-02T00:46:16;4.00;99.90
8099;DHT22;4092;47.876;9.372;2024-03-02T00:48:54;3.90;99.90
8099;DHT22;4092;47.876;9.372;2024-03-02T00:51:25;4.00;99.90
8099;DHT22;4092;47.876;9.372;2024-03-02T00:53:53;4.00;99.90
8099;DHT22;4092;47.876;9.372;2024-03-02T00:56:22;4.10;99.90
8099;DHT22;4092;47.876;9.372;2024-03-02T00:58:50;4.00;99.90
8099;DHT22;4092;47.876;9.372;2024-03-02T01:01:17;3.90;99.90
8099;DHT22;4092;47.876;9.372;2024-03-02T01:03:45;3.90;99.90
8099;DHT22;4092;47.876;9.372;2024-03-02T01:06:12;3.90;99.90
8099;DHT22;4092;47.876;9.372;2024-03-02T01:08:41;3.90;99.90
8099;DHT22;4092;47.876;9.372;2024-03-02T01:11:08;3.90;99.90
8099;DHT22;4092;47.876;9.372;2024-03-02T01:13:35;3.90;99.90
8099;DHT22;4092;47.876;9.372;2024-03-02T01:16:02;4.00;99.90
8099;DHT22;4092;47.876;9.372;2024-03-02T01:18:29;3.90;99.90
8099;DHT22;4092;47.876;9.372;2024-03-02T01:20:57;4.00;99.90
8099;DHT22;4092;47.876;9.372;2024-03-02T01:23:24;4.00;99.90
8099;DHT22;4092;47.876;9.372;2024-03-02T01:25:53;4.00;99.90
8099;DHT22;4092;47.876;9.372;2024-03-02T01:28:20;4.00;99.90
8099;DHT22;4092;47.876;9.372;2024-03-02T01:30:48;4.10;99.90
8099;DHT22;4092;47.876;9.372;2024-03-02T01:33:15;4.10;99.90
8099;DHT22;4092;47.876;9.372;2024-03-02T01:35:43;4.10;99.90
8099;DHT22;4092;47.876;9.372;2024-03-02T01:38:10;4.10;99.90
8099;DHT22;4092;47.876;9.372;2024-03-02T01:40:38;4.00;99.90
8099;DHT22;4092;47.876;9.372;2024-03-02T01:43:07;4.00;99.90
8099;DHT22;4092;47.876;9.372;2024-03-02T01:45:34;4.00;99.90
8099;DHT22;4092;47.876;9.372;2024-03-02T01:48:03;4.00;99.90
8099;DHT22;4092;47.876;9.372;2024-03-02T01:50:31;3.90;99.90
8099;DHT22;4092;47.876;9.372;2024-03-02T01:52:59;3.90;99.90
8099;DHT22;4092;47.876;9.372;2024-03-02T01:55:26;3.90;99.90
8099;DHT22;4092;47.876;9.372;2024-03-02T01:57:55;3.90;99.90
8099;DHT22;4092;47.876;9.372;2024-03-02T02:00:24;3.90;99.90
8099;DHT22;4092;47.876;9.372;2024-03-02T02:02:52;3.80;99.90
8099;DHT22;4092;47.876;9.372;2024-03-02T02:05:19;3.80;99.90
8099;DHT22;4092;47.876;9.372;2024-03-02T02:07:46;3.80;99.90
8099;DHT22;4092;47.876;9.372;2024-03-02T02:10:13;3.70;99.90
8099;DHT22;4092;47.876;9.372;2024-03-02T02:12:40;3.70;99.90
8099;DHT22;4092;47.876;9.372;2024-03-02T02:15:24;3.70;99.90
8099;DHT22;4092;47.876;9.372;2024-03-02T02:17:52;3.70;99.90
8099;DHT22;4092;47.876;9.372;2024-03-02T02:20:19;3.60;99.90
8099;DHT22;4092;47.876;9.372;2024-03-02T02:22:55;3.60;99.90
8099;DHT22;4092;47.876;9.372;2024-03-02T02:25:22;3.60;99.90
8099;DHT22;4092;47.876;9.372;2024-03-02T02:27:50;3.60;99.90
8099;DHT22;4092;47.876;9.372;2024-03-02T02:30:19;3.50;99.90
8099;DHT22;4092;47.876;9.372;2024-03-02T02:32:46;3.50;99.90
8099;DHT22;4092;47.876;9.372;2024-03-02T02:35:14;3.50;99.90
8099;DHT22;4092;47.876;9.372;2024-03-02T02:37:41;3.40;99.90
8099;DHT22;4092;47.876;9.372;2024-03-02T02:40:10;3.50;99.90
8099;DHT22;4092;47.876;9.372;2024-03-02T02:42:38;3.40;99.90
8099;DHT22;4092;47.876;9.372;2024-03-02T02:45:05;3.40;99.90
8099;DHT22;4092;47.876;9.372;2024-03-02T02:47:33;3.40;99.90
8099;DHT22;4092;47.876;9.372;2024-03-02T02:50:01;3.40;99.90
8099;DHT22;4092;47.876;9.372;2024-03-02T02:52:31;3.40;99.90
8099;DHT22;4092;47.876;9.372;2024-03-02T02:55:02;3.40;99.90
8099;DHT22;4092;47.876;9.372;2024-03-02T02:57:31;3.40;99.90
8099;DHT22;4092;47.876;9.372;2024-03-02T03:00:02;3.40;99.90
8099;DHT22;4092;47.876;9.372;2024-03-02T03:02:36;3.30;99.90
8099;DHT22;4092;47.876;9.372;2024-03-02T03:05:04;3.30;99.90
8099;DHT22;4092;47.876;9.372;2024-03-02T03:07:31;3.20;99.90
8099;DHT22;4092;47.876;9.372;2024-03-02T03:09:59;3.20;99.90
8099;DHT22;4092;47.876;9.372;2024-03-02T03:12:26;3.20;99.90
8099;DHT22;4092;47.876;9.372;2024-03-02T03:14:54;3.30;99.90
8099;DHT22;4092;47.876;9.372;2024-03-02T03:17:21;3.30;99.90
8099;DHT22;4092;47.876;9.372;2024-03-02T03:19:48;3.30;99.90
8099;DHT22;4092;47.876;9.372;2024-03-02T03:22:16;3.30;99.90
8099;DHT22;4092;47.876;9.372;2024-03-02T03:24:43;3.30;99.90
8099;DHT22;4092;47.876;9.372;2024-03-02T03:27:10;3.30;99.90
8099;DHT22;4092;47.876;9.372;2024-03-02T03:29:37;3.20;99.90
8099;DHT22;4092;47.876;9.372;2024-03-02T03:32:06;3.20;99.90
8099;DHT22;4092;47.876;9.372;2024-03-02T03:34:34;3.30;99.90
8099;DHT22;4092;47.876;9.372;2024-03-02T03:37:01;3.20;99.90
8099;DHT22;4092;47.876;9.372;2024-03-02T03:39:28;3.20;99.90
8099;DHT22;4092;47.876;9.372;2024-03-02T03:41:55;3.20;99.90
8099;DHT22;4092;47.876;9.372;2024-03-02T03:44:22;3.30;99.90
8099;DHT22;4092;47.876;9.372;2024-03-02T03:46:49;3.20;99.90
8099;DHT22;4092;47.876;9.372;2024-03-02T03:49:18;3.30;99.90
8099;DHT22;4092;47.876;9.372;2024-03-02T03:51:45;3.30;99.90
8099;DHT22;4092;47.876;9.372;2024-03-02T03:54:12;3.20;99.90
8099;DHT22;4092;47.876;9.372;2024-03-02T03:56:39;3.20;99.90
8099;DHT22;4092;47.876;9.372;2024-03-02T03:59:06;3.20;99.90
8099;DHT22;4092;47.876;9.372;2024-03-02T04:01:33;3.20;99.90
8099;DHT22;4092;47.876;9.372;2024-03-02T04:04:00;3.20;99.90
8099;DHT22;4092;47.876;9.372;2024-03-02T04:06:30;3.20;99.90
8099;DHT22;4092;47.876;9.372;2024-03-02T04:08:57;3.20;99.90
8099;DHT22;4092;47.876;9.372;2024-03-02T04:11:24;3.20;99.90
8099;DHT22;4092;47.876;9.372;2024-03-02T04:13:51;3.20;99.90
8099;DHT22;4092;47.876;9.372;2024-03-02T04:16:18;3.10;99.90
8099;DHT22;4092;47.876;9.372;2024-03-02T04:18:45;3.10;99.90
8099;DHT22;4092;47.876;9.372;2024-03-02T04:21:12;3.10;99.90
8099;DHT22;4092;47.876;9.372;2024-03-02T04:23:41;3.20;99.90
8099;DHT22;4092;47.876;9.372;2024-03-02T04:26:08;3.20;99.90
8099;DHT22;4092;47.876;9.372;2024-03-02T04:28:35;3.20;99.90
8099;DHT22;4092;47.876;9.372;2024-03-02T04:31:02;3.20;99.90
8099;DHT22;4092;47.876;9.372;2024-03-02T04:33:29;3.20;99.90
8099;DHT22;4092;47.876;9.372;2024-03-02T04:35:56;3.20;99.90
8099;DHT22;4092;47.876;9.372;2024-03-02T04:38:23;3.10;99.90
8099;DHT22;4092;47.876;9.372;2024-03-02T04:40:51;3.20;99.90
8099;DHT22;4092;47.876;9.372;2024-03-02T04:43:18;3.20;99.90
8099;DHT22;4092;47.876;9.372;2024-03-02T04:45:45;3.20;99.90
8099;DHT22;4092;47.876;9.372;2024-03-02T04:48:12;3.10;99.90
8099;DHT22;4092;47.876;9.372;2024-03-02T04:50:40;3.20;99.90
8099;DHT22;4092;47.876;9.372;2024-03-02T04:53:07;3.30;99.90
8099;DHT22;4092;47.876;9.372;2024-03-02T04:55:34;3.30;99.90
8099;DHT22;4092;47.876;9.372;2024-03-02T04:58:46;3.30;99.90
8099;DHT22;4092;47.876;9.372;2024-03-02T05:01:13;3.30;99.90
8099;DHT22;4092;47.876;9.372;2024-03-02T05:03:42;3.30;99.90
8099;DHT22;4092;47.876;9.372;2024-03-02T05:06:09;3.30;99.90
8099;DHT22;4092;47.876;9.372;2024-03-02T05:08:36;3.30;99.90
8099;DHT22;4092;47.876;9.372;2024-03-02T05:11:03;3.30;99.90
8099;DHT22;4092;47.876;9.372;2024-03-02T05:13:45;3.40;99.90
8099;DHT22;4092;47.876;9.372;2024-03-02T05:16:12;3.50;99.90
8099;DHT22;4092;47.876;9.372;2024-03-02T05:18:39;3.50;99.90
8099;DHT22;4092;47.876;9.372;2024-03-02T05:21:06;3.50;99.90
8099;DHT22;4092;47.876;9.372;2024-03-02T05:23:33;3.50;99.90
8099;DHT22;4092;47.876;9.372;2024-03-02T05:26:00;3.40;99.90
8099;DHT22;4092;47.876;9.372;2024-03-02T05:28:27;3.40;99.90
8099;DHT22;4092;47.876;9.372;2024-03-02T05:30:55;3.40;99.90
8099;DHT22;4092;47.876;9.372;2024-03-02T05:33:22;3.40;99.90
8099;DHT22;4092;47.876;9.372;2024-03-02T05:35:49;3.40;99.90
8099;DHT22;4092;47.876;9.372;2024-03-02T05:38:17;3.40;99.90
8099;DHT22;4092;47.876;9.372;2024-03-02T05:40:44;3.40;99.90
8099;DHT22;4092;47.876;9.372;2024-03-02T05:43:11;3.40;99.90
8099;DHT22;4092;47.876;9.372;2024-03-02T05:45:38;3.30;99.90
8099;DHT22;4092;47.876;9.372;2024-03-02T05:48:07;3.30;99.90
8099;DHT22;4092;47.876;9.372;2024-03-02T05:50:34;3.30;99.90
8099;DHT22;4092;47.876;9.372;2024-03-02T05:53:01;3.30;99.90
8099;DHT22;4092;47.876;9.372;2024-03-02T05:55:28;3.40;99.90
8099;DHT22;4092;47.876;9.372;2024-03-02T05:57:56;3.40;99.90
8099;DHT22;4092;47.876;9.372;2024-03-02T06:00:41;3.30;99.90
8099;DHT22;4092;47.876;9.372;2024-03-02T06:03:09;3.40;99.90
8099;DHT22;4092;47.876;9.372;2024-03-02T06:05:36;3.30;99.90
8099;DHT22;4092;47.876;9.372;2024-03-02T06:08:03;3.30;99.90
8099;DHT22;4092;47.876;9.372;2024-03-02T06:10:30;3.40;99.90
8099;DHT22;4092;47.876;9.372;2024-03-02T06:12:57;3.40;99.90
8099;DHT22;4092;47.876;9.372;2024-03-02T06:15:25;3.40;99.90
8099;DHT22;4092;47.876;9.372;2024-03-02T06:17:52;3.40;99.90
8099;DHT22;4092;47.876;9.372;2024-03-02T06:20:20;3.40;99.90
8099;DHT22;4092;47.876;9.372;2024-03-02T06:22:47;3.40;99.90
8099;DHT22;4092;47.876;9.372;2024-03-02T06:25:14;3.50;99.90
8099;DHT22;4092;47.876;9.372;2024-03-02T06:27:41;3.50;99.90
8099;DHT22;4092;47.876;9.372;2024-03-02T06:30:10;3.50;99.90
8099;DHT22;4092;47.876;9.372;2024-03-02T06:32:37;3.60;99.90
8099;DHT22;4092;47.876;9.372;2024-03-02T06:35:05;3.60;99.90
8099;DHT22;4092;47.876;9.372;2024-03-02T06:37:37;3.60;99.90
8099;DHT22;4092;47.876;9.372;2024-03-02T06:40:06;3.60;99.90
8099;DHT22;4092;47.876;9.372;2024-03-02T06:42:33;3.60;99.90
8099;DHT22;4092;47.876;9.372;2024-03-02T06:45:00;3.60;99.90
8099;DHT22;4092;47.876;9.372;2024-03-02T06:47:28;3.70;99.90
8099;DHT22;4092;47.876;9.372;2024-03-02T06:49:55;3.70;99.90
8099;DHT22;4092;47.876;9.372;2024-03-02T06:52:23;3.70;99.90
8099;DHT22;4092;47.876;9.372;2024-03-02T06:54:51;3.90;99.90
8099;DHT22;4092;47.876;9.372;2024-03-02T06:57:18;3.90;99.90
8099;DHT22;4092;47.876;9.372;2024-03-02T06:59:46;4.00;99.90
8099;DHT22;4092;47.876;9.372;2024-03-02T07:02:14;4.10;99.90
8099;DHT22;4092;47.876;9.372;2024-03-02T07:04:41;4.10;99.90
8099;DHT22;4092;47.876;9.372;2024-03-02T07:07:08;4.20;99.90
8099;DHT22;4092;47.876;9.372;2024-03-02T07:09:35;4.20;99.90
8099;DHT22;4092;47.876;9.372;2024-03-02T07:12:04;4.30;99.90
8099;DHT22;4092;47.876;9.372;2024-03-02T07:14:31;4.30;99.90
8099;DHT22;4092;47.876;9.372;2024-03-02T07:17:12;4.40;99.90
8099;DHT22;4092;47.876;9.372;2024-03-02T07:19:39;4.40;99.90
8099;DHT22;4092;47.876;9.372;2024-03-02T07:22:06;4.50;99.90
8099;DHT22;4092;47.876;9.372;2024-03-02T07:24:39;4.50;99.90
8099;DHT22;4092;47.876;9.372;2024-03-02T07:27:09;4.60;99.90
8099;DHT22;4092;47.876;9.372;2024-03-02T07:29:38;4.60;99.90
8099;DHT22;4092;47.876;9.372;2024-03-02T07:32:08;4.70;99.90
8099;DHT22;4092;47.876;9.372;2024-03-02T07:34:35;4.80;99.90
8099;DHT22;4092;47.876;9.372;2024-03-02T07:37:03;4.90;99.90
8099;DHT22;4092;47.876;9.372;2024-03-02T07:39:30;4.90;99.90
8099;DHT22;4092;47.876;9.372;2024-03-02T07:41:57;5.00;99.90
8099;DHT22;4092;47.876;9.372;2024-03-02T07:44:26;5.00;99.90
8099;DHT22;4092;47.876;9.372;2024-03-02T07:46:53;5.00;99.90
8099;DHT22;4092;47.876;9.372;2024-03-02T07:49:20;5.10;99.90
8099;DHT22;4092;47.876;9.372;2024-03-02T07:51:47;5.00;99.90
8099;DHT22;4092;47.876;9.372;2024-03-02T07:54:14;5.00;99.90
8099;DHT22;4092;47.876;9.372;2024-03-02T07:56:41;4.90;99.90
8099;DHT22;4092;47.876;9.372;2024-03-02T07:59:09;4.90;99.90
8099;DHT22;4092;47.876;9.372;2024-03-02T08:01:37;4.90;99.90
8099;DHT22;4092;47.876;9.372;2024-03-02T08:04:04;4.90;99.90
8099;DHT22;4092;47.876;9.372;2024-03-02T08:06:31;4.90;99.90
8099;DHT22;4092;47.876;9.372;2024-03-02T08:09:00;4.90;99.90
8099;DHT22;4092;47.876;9.372;2024-03-02T08:11:27;4.90;99.90
8099;DHT22;4092;47.876;9.372;2024-03-02T08:13:56;5.00;99.90
8099;DHT22;4092;47.876;9.372;2024-03-02T08:16:23;5.10;99.90
8099;DHT22;4092;47.876;9.372;2024-03-02T08:18:52;5.10;99.90
8099;DHT22;4092;47.876;9.372;2024-03-02T08:21:20;5.10;99.90
8099;DHT22;4092;47.876;9.372;2024-03-02T08:23:47;5.20;99.90
8099;DHT22;4092;47.876;9.372;2024-03-02T08:26:14;5.20;99.90
8099;DHT22;4092;47.876;9.372;2024-03-02T08:28:41;5.30;99.90
8099;DHT22;4092;47.876;9.372;2024-03-02T08:31:08;5.30;99.90
8099;DHT22;4092;47.876;9.372;2024-03-02T08:33:35;5.30;99.90
8099;DHT22;4092;47.876;9.372;2024-03-02T08:36:05;5.30;99.90
8099;DHT22;4092;47.876;9.372;2024-03-02T08:38:33;5.40;99.90
8099;DHT22;4092;47.876;9.372;2024-03-02T08:41:00;5.40;99.90
8099;DHT22;4092;47.876;9.372;2024-03-02T08:43:27;5.50;99.90
8099;DHT22;4092;47.876;9.372;2024-03-02T08:45:54;5.60;99.90
8099;DHT22;4092;47.876;9.372;2024-03-02T08:48:21;5.80;99.90
8099;DHT22;4092;47.876;9.372;2024-03-02T08:50:48;5.90;99.90
8099;DHT22;4092;47.876;9.372;2024-03-02T08:53:17;6.00;99.90
8099;DHT22;4092;47.876;9.372;2024-03-02T08:55:45;6.10;99.90
8099;DHT22;4092;47.876;9.372;2024-03-02T08:58:12;6.20;99.90
8099;DHT22;4092;47.876;9.372;2024-03-02T09:00:39;6.30;99.90
8099;DHT22;4092;47.876;9.372;2024-03-02T09:03:07;6.40;99.90
8099;DHT22;4092;47.876;9.372;2024-03-02T09:05:34;6.60;99.90
8099;DHT22;4092;47.876;9.372;2024-03-02T09:08:01;6.70;99.90
8099;DHT22;4092;47.876;9.372;2024-03-02T09:10:30;6.80;99.90
8099;DHT22;4092;47.876;9.372;2024-03-02T09:12:58;6.90;99.90
8099;DHT22;4092;47.876;9.372;2024-03-02T09:15:28;7.00;99.90
8099;DHT22;4092;47.876;9.372;2024-03-02T09:17:55;7.00;99.90
8099;DHT22;4092;47.876;9.372;2024-03-02T09:20:22;7.10;99.90
8099;DHT22;4092;47.876;9.372;2024-03-02T09:22:49;7.20;99.90
8099;DHT22;4092;47.876;9.372;2024-03-02T09:25:16;7.30;99.90
8099;DHT22;4092;47.876;9.372;2024-03-02T09:27:44;7.40;99.90
8099;DHT22;4092;47.876;9.372;2024-03-02T09:30:12;7.50;99.90
8099;DHT22;4092;47.876;9.372;2024-03-02T09:32:41;7.60;99.90
8099;DHT22;4092;47.876;9.372;2024-03-02T09:35:08;7.60;99.90
8099;DHT22;4092;47.876;9.372;2024-03-02T09:37:35;7.60;99.90
8099;DHT22;4092;47.876;9.372;2024-03-02T09:40:02;7.60;99.90
8099;DHT22;4092;47.876;9.372;2024-03-02T09:42:30;7.70;99.90
8099;DHT22;4092;47.876;9.372;2024-03-02T09:44:59;7.80;99.90
8099;DHT22;4092;47.876;9.372;2024-03-02T09:47:26;7.90;99.90
8099;DHT22;4092;47.876;9.372;2024-03-02T09:49:53;8.00;99.90
8099;DHT22;4092;47.876;9.372;2024-03-02T09:52:21;8.10;99.90
8099;DHT22;4092;47.876;9.372;2024-03-02T09:54:49;8.20;99.90
8099;DHT22;4092;47.876;9.372;2024-03-02T09:57:16;8.20;99.90
8099;DHT22;4092;47.876;9.372;2024-03-02T09:59:43;8.30;99.90
8099;DHT22;4092;47.876;9.372;2024-03-02T10:02:12;8.40;99.90
8099;DHT22;4092;47.876;9.372;2024-03-02T10:04:39;8.50;99.90
8099;DHT22;4092;47.876;9.372;2024-03-02T10:07:13;8.60;99.90
8099;DHT22;4092;47.876;9.372;2024-03-02T10:09:40;8.70;99.90
8099;DHT22;4092;47.876;9.372;2024-03-02T10:12:09;8.80;99.90
8099;DHT22;4092;47.876;9.372;2024-03-02T10:14:37;8.80;99.90
8099;DHT22;4092;47.876;9.372;2024-03-02T10:17:06;8.90;99.90
8099;DHT22;4092;47.876;9.372;2024-03-02T10:19:35;9.10;99.90
8099;DHT22;4092;47.876;9.372;2024-03-02T10:22:04;9.10;99.90
8099;DHT22;4092;47.876;9.372;2024-03-02T10:24:39;9.20;99.90
8099;DHT22;4092;47.876;9.372;2024-03-02T10:27:10;9.30;99.90
8099;DHT22;4092;47.876;9.372;2024-03-02T10:29:38;9.30;99.90
8099;DHT22;4092;47.876;9.372;2024-03-02T10:32:06;9.30;99.90
8099;DHT22;4092;47.876;9.372;2024-03-02T10:34:37;9.50;99.90
8099;DHT22;4092;47.876;9.372;2024-03-02T10:37:05;9.60;99.90
8099;DHT22;4092;47.876;9.372;2024-03-02T10:39:34;9.70;99.90
8099;DHT22;4092;47.876;9.372;2024-03-02T10:42:02;9.80;99.90
8099;DHT22;4092;47.876;9.372;2024-03-02T10:44:31;10.00;99.90
8099;DHT22;4092;47.876;9.372;2024-03-02T10:47:00;10.00;99.90
8099;DHT22;4092;47.876;9.372;2024-03-02T10:49:29;10.10;99.90
8099;DHT22;4092;47.876;9.372;2024-03-02T10:51:58;10.20;99.90
8099;DHT22;4092;47.876;9.372;2024-03-02T10:54:25;10.20;99.90
8099;DHT22;4092;47.876;9.372;2024-03-02T10:56:56;10.30;99.90
8099;DHT22;4092;47.876;9.372;2024-03-02T10:59:28;10.30;99.90
8099;DHT22;4092;47.876;9.372;2024-03-02T11:01:57;10.40;99.90
8099;DHT22;4092;47.876;9.372;2024-03-02T11:04:26;10.50;99.90
8099;DHT22;4092;47.876;9.372;2024-03-02T11:06:59;10.60;99.90
8099;DHT22;4092;47.876;9.372;2024-03-02T11:09:28;10.70;99.90
8099;DHT22;4092;47.876;9.372;2024-03-02T11:12:02;10.80;99.90
8099;DHT22;4092;47.876;9.372;2024-03-02T11:14:31;10.90;99.90
8099;DHT22;4092;47.876;9.372;2024-03-02T11:17:00;11.10;99.90
8099;DHT22;4092;47.876;9.372;2024-03-02T11:19:29;11.20;99.90
8099;DHT22;4092;47.876;9.372;2024-03-02T11:21:59;11.40;99.90
8099;DHT22;4092;47.876;9.372;2024-03-02T11:24:33;11.60;99.90
8099;DHT22;4092;47.876;9.372;2024-03-02T11:27:01;11.60;99.90
8099;DHT22;4092;47.876;9.372;2024-03-02T11:29:44;11.70;99.90
8099;DHT22;4092;47.876;9.372;2024-03-02T11:32:20;11.80;99.90
8099;DHT22;4092;47.876;9.372;2024-03-02T11:34:49;11.90;99.90
8099;DHT22;4092;47.876;9.372;2024-03-02T11:37:19;11.90;99.90
8099;DHT22;4092;47.876;9.372;2024-03-02T11:39:48;12.00;99.90
8099;DHT22;4092;47.876;9.372;2024-03-02T11:42:17;12.10;99.90
8099;DHT22;4092;47.876;9.372;2024-03-02T11:44:46;12.10;99.90
8099;DHT22;4092;47.876;9.372;2024-03-02T11:47:15;12.30;99.90
8099;DHT22;4092;47.876;9.372;2024-03-02T11:49:44;12.40;99.90
8099;DHT22;4092;47.876;9.372;2024-03-02T11:52:12;12.50;99.90
8099;DHT22;4092;47.876;9.372;2024-03-02T11:54:43;12.60;99.90
8099;DHT22;4092;47.876;9.372;2024-03-02T11:57:15;12.70;99.90
8099;DHT22;4092;47.876;9.372;2024-03-02T11:59:43;12.70;99.90
8099;DHT22;4092;47.876;9.372;2024-03-02T12:02:15;12.90;99.90
8099;DHT22;4092;47.876;9.372;2024-03-02T12:04:44;13.00;99.90
8099;DHT22;4092;47.876;9.372;2024-03-02T12:07:12;13.10;99.90
8099;DHT22;4092;47.876;9.372;2024-03-02T12:09:39;13.20;99.90
8099;DHT22;4092;47.876;9.372;2024-03-02T12:12:09;13.30;99.90
8099;DHT22;4092;47.876;9.372;2024-03-02T12:14:38;13.40;99.90
8099;DHT22;4092;47.876;9.372;2024-03-02T12:17:05;13.50;99.90
8099;DHT22;4092;47.876;9.372;2024-03-02T12:19:33;13.60;99.90
8099;DHT22;4092;47.876;9.372;2024-03-02T12:22:00;13.80;99.90
8099;DHT22;4092;47.876;9.372;2024-03-02T12:24:28;13.80;99.90
8099;DHT22;4092;47.876;9.372;2024-03-02T12:26:56;13.80;99.90
8099;DHT22;4092;47.876;9.372;2024-03-02T12:29:25;13.90;99.90
8099;DHT22;4092;47.876;9.372;2024-03-02T12:31:52;13.90;99.90
8099;DHT22;4092;47.876;9.372;2024-03-02T12:34:22;14.00;99.90
8099;DHT22;4092;47.876;9.372;2024-03-02T12:36:49;14.10;99.90
8099;DHT22;4092;47.876;9.372;2024-03-02T12:39:19;14.30;99.90
8099;DHT22;4092;47.876;9.372;2024-03-02T12:41:46;14.50;99.90
8099;DHT22;4092;47.876;9.372;2024-03-02T12:44:16;14.50;99.90
8099;DHT22;4092;47.876;9.372;2024-03-02T12:46:45;14.70;99.90
8099;DHT22;4092;47.876;9.372;2024-03-02T12:49:14;14.70;99.90
8099;DHT22;4092;47.876;9.372;2024-03-02T12:51:42;14.70;99.90
8099;DHT22;4092;47.876;9.372;2024-03-02T12:54:10;14.70;99.90
8099;DHT22;4092;47.876;9.372;2024-03-02T12:56:37;14.80;99.90
8099;DHT22;4092;47.876;9.372;2024-03-02T12:59:05;14.80;99.90
8099;DHT22;4092;47.876;9.372;2024-03-02T13:01:32;15.00;99.90
8099;DHT22;4092;47.876;9.372;2024-03-02T13:04:00;15.00;99.90
8099;DHT22;4092;47.876;9.372;2024-03-02T13:06:27;15.20;99.90
8099;DHT22;4092;47.876;9.372;2024-03-02T13:09:01;15.30;99.90
8099;DHT22;4092;47.876;9.372;2024-03-02T13:11:29;15.30;99.90
8099;DHT22;4092;47.876;9.372;2024-03-02T13:13:56;15.30;99.90
8099;DHT22;4092;47.876;9.372;2024-03-02T13:16:23;15.20;99.90
8099;DHT22;4092;47.876;9.372;2024-03-02T13:18:51;15.30;99.90
8099;DHT22;4092;47.876;9.372;2024-03-02T13:21:20;15.60;99.90
8099;DHT22;4092;47.876;9.372;2024-03-02T13:23:47;15.70;99.90
8099;DHT22;4092;47.876;9.372;2024-03-02T13:26:14;15.50;99.90
8099;DHT22;4092;47.876;9.372;2024-03-02T13:28:41;15.40;99.90
8099;DHT22;4092;47.876;9.372;2024-03-02T13:31:08;15.50;99.90
8099;DHT22;4092;47.876;9.372;2024-03-02T13:33:35;15.70;99.90
8099;DHT22;4092;47.876;9.372;2024-03-02T13:36:02;15.80;99.90
8099;DHT22;4092;47.876;9.372;2024-03-02T13:38:31;15.80;99.90
8099;DHT22;4092;47.876;9.372;2024-03-02T13:40:58;15.80;99.90
8099;DHT22;4092;47.876;9.372;2024-03-02T13:43:29;15.70;99.90
8099;DHT22;4092;47.876;9.372;2024-03-02T13:45:57;15.60;99.90
8099;DHT22;4092;47.876;9.372;2024-03-02T13:48:24;15.60;99.90
8099;DHT22;4092;47.876;9.372;2024-03-02T13:50:52;15.50;99.90
8099;DHT22;4092;47.876;9.372;2024-03-02T13:53:19;15.60;99.90
8099;DHT22;4092;47.876;9.372;2024-03-02T13:55:47;15.70;99.90
8099;DHT22;4092;47.876;9.372;2024-03-02T13:58:14;15.90;99.90
8099;DHT22;4092;47.876;9.372;2024-03-02T14:00:42;16.00;99.90
8099;DHT22;4092;47.876;9.372;2024-03-02T14:03:09;16.30;99.90
8099;DHT22;4092;47.876;9.372;2024-03-02T14:05:36;16.40;99.90
8099;DHT22;4092;47.876;9.372;2024-03-02T14:08:03;16.40;99.90
8099;DHT22;4092;47.876;9.372;2024-03-02T14:10:31;16.30;99.90
8099;DHT22;4092;47.876;9.372;2024-03-02T14:12:59;16.20;99.90
8099;DHT22;4092;47.876;9.372;2024-03-02T14:15:26;16.30;99.90
8099;DHT22;4092;47.876;9.372;2024-03-02T14:17:55;16.50;99.90
8099;DHT22;4092;47.876;9.372;2024-03-02T14:20:22;16.70;99.90
8099;DHT22;4092;47.876;9.372;2024-03-02T14:22:49;17.10;99.90
8099;DHT22;4092;47.876;9.372;2024-03-02T14:25:17;17.30;99.90
8099;DHT22;4092;47.876;9.372;2024-03-02T14:27:44;17.30;99.90
8099;DHT22;4092;47.876;9.372;2024-03-02T14:30:14;17.20;99.90
8099;DHT22;4092;47.876;9.372;2024-03-02T14:32:41;17.10;99.90
8099;DHT22;4092;47.876;9.372;2024-03-02T14:35:08;17.00;99.90
8099;DHT22;4092;47.876;9.372;2024-03-02T14:37:37;17.00;99.90
8099;DHT22;4092;47.876;9.372;2024-03-02T14:40:05;16.90;99.90
8099;DHT22;4092;47.876;9.372;2024-03-02T14:42:35;17.00;99.90
8099;DHT22;4092;47.876;9.372;2024-03-02T14:45:02;17.00;99.90
8099;DHT22;4092;47.876;9.372;2024-03-02T14:47:33;16.90;99.90
8099;DHT22;4092;47.876;9.372;2024-03-02T14:50:01;16.80;99.90
8099;DHT22;4092;47.876;9.372;2024-03-02T14:52:30;16.70;99.90
8099;DHT22;4092;47.876;9.372;2024-03-02T14:54:57;16.60;99.90
8099;DHT22;4092;47.876;9.372;2024-03-02T14:57:24;16.30;99.90
8099;DHT22;4092;47.876;9.372;2024-03-02T14:59:51;15.90;99.90
8099;DHT22;4092;47.876;9.372;2024-03-02T15:02:20;15.70;99.90
8099;DHT22;4092;47.876;9.372;2024-03-02T15:04:48;15.50;99.90
8099;DHT22;4092;47.876;9.372;2024-03-02T15:07:15;15.30;99.90
8099;DHT22;4092;47.876;9.372;2024-03-02T15:09:42;15.00;99.90
8099;DHT22;4092;47.876;9.372;2024-03-02T15:12:10;15.00;99.90
8099;DHT22;4092;47.876;9.372;2024-03-02T15:14:38;14.90;99.90
8099;DHT22;4092;47.876;9.372;2024-03-02T15:17:11;14.70;99.90
8099;DHT22;4092;47.876;9.372;2024-03-02T15:19:41;14.70;99.90
8099;DHT22;4092;47.876;9.372;2024-03-02T15:22:10;14.50;99.90
8099;DHT22;4092;47.876;9.372;2024-03-02T15:24:37;14.40;99.90
8099;DHT22;4092;47.876;9.372;2024-03-02T15:27:05;14.30;99.90
8099;DHT22;4092;47.876;9.372;2024-03-02T15:29:34;14.30;99.90
8099;DHT22;4092;47.876;9.372;2024-03-02T15:32:01;14.10;99.90
8099;DHT22;4092;47.876;9.372;2024-03-02T15:34:30;13.90;99.90
8099;DHT22;4092;47.876;9.372;2024-03-02T15:36:58;13.70;99.90
8099;DHT22;4092;47.876;9.372;2024-03-02T15:39:27;13.60;99.90
8099;DHT22;4092;47.876;9.372;2024-03-02T15:41:54;13.40;99.90
8099;DHT22;4092;47.876;9.372;2024-03-02T15:44:21;13.30;99.90
8099;DHT22;4092;47.876;9.372;2024-03-02T15:46:48;13.20;99.90
8099;DHT22;4092;47.876;9.372;2024-03-02T15:49:17;13.10;99.90
8099;DHT22;4092;47.876;9.372;2024-03-02T15:51:44;13.00;99.90
8099;DHT22;4092;47.876;9.372;2024-03-02T15:54:11;12.90;99.90
8099;DHT22;4092;47.876;9.372;2024-03-02T15:56:40;12.70;99.90
8099;DHT22;4092;47.876;9.372;2024-03-02T15:59:07;12.70;99.90
8099;DHT22;4092;47.876;9.372;2024-03-02T16:01:34;12.50;99.90
8099;DHT22;4092;47.876;9.372;2024-03-02T16:04:02;12.40;99.90
8099;DHT22;4092;47.876;9.372;2024-03-02T16:06:29;12.20;99.90
8099;DHT22;4092;47.876;9.372;2024-03-02T16:08:56;12.10;99.90
8099;DHT22;4092;47.876;9.372;2024-03-02T16:11:25;12.00;99.90
8099;DHT22;4092;47.876;9.372;2024-03-02T16:13:53;12.00;99.90
8099;DHT22;4092;47.876;9.372;2024-03-02T16:16:20;11.80;99.90
8099;DHT22;4092;47.876;9.372;2024-03-02T16:18:47;11.70;99.90